createdAt,value
2017-12-16T00:00:10.477Z,997.11
2017-12-16T00:01:10.491Z,997.14
2017-12-16T00:02:10.515Z,997.17
2017-12-16T00:03:10.613Z,997.15
2017-12-16T00:04:10.528Z,997.18
2017-12-16T00:05:10.541Z,997.16
2017-12-16T00:06:10.551Z,997.18
2017-12-16T00:07:10.564Z,997.21
2017-12-16T00:08:10.573Z,997.21
2017-12-16T00:09:10.587Z,997.22
2017-12-16T00:10:10.598Z,997.27
2017-12-16T00:11:10.610Z,997.24
2017-12-16T00:12:10.623Z,997.24
2017-12-16T00:13:10.634Z,997.25
2017-12-16T00:14:10.646Z,997.29
2017-12-16T00:15:10.660Z,997.28
2017-12-16T00:16:10.668Z,997.32
2017-12-16T00:17:10.680Z,997.29
2017-12-16T00:18:10.692Z,997.26
2017-12-16T00:19:10.703Z,997.31
2017-12-16T00:20:10.721Z,997.29
2017-12-16T00:21:10.727Z,997.37
2017-12-16T00:22:10.743Z,997.38
2017-12-16T00:23:10.751Z,997.40
2017-12-16T00:24:10.763Z,997.43
2017-12-16T00:25:10.778Z,997.45
2017-12-16T00:26:10.798Z,997.41
2017-12-16T00:27:10.802Z,997.44
2017-12-16T00:28:10.811Z,997.46
2017-12-16T00:29:10.825Z,997.52
2017-12-16T00:31:10.850Z,997.49
2017-12-16T00:32:10.908Z,997.47
2017-12-16T00:33:10.871Z,997.50
2017-12-16T00:34:10.882Z,997.48
2017-12-16T00:35:10.892Z,997.47
2017-12-16T00:36:10.906Z,997.46
2017-12-16T00:37:10.919Z,997.50
2017-12-16T00:38:10.929Z,997.48
2017-12-16T00:39:10.945Z,997.51
2017-12-16T00:40:10.961Z,997.51
2017-12-16T00:41:10.966Z,997.53
2017-12-16T00:42:10.983Z,997.48
2017-12-16T00:43:10.988Z,997.52
2017-12-16T00:44:11.000Z,997.54
2017-12-16T00:45:11.011Z,997.48
2017-12-16T00:46:11.023Z,997.51
2017-12-16T00:47:11.034Z,997.52
2017-12-16T00:48:11.045Z,997.51
2017-12-16T00:49:11.056Z,997.50
2017-12-16T00:50:11.075Z,997.57
2017-12-16T00:51:11.082Z,997.54
2017-12-16T00:52:11.096Z,997.53
2017-12-16T00:53:11.106Z,997.56
2017-12-16T00:54:11.119Z,997.56
2017-12-16T00:55:11.131Z,997.59
2017-12-16T00:56:11.144Z,997.59
2017-12-16T00:57:11.159Z,997.61
2017-12-16T00:58:11.167Z,997.61
2017-12-16T00:59:11.177Z,997.65
2017-12-16T01:00:11.188Z,997.68
2017-12-16T01:01:11.201Z,997.68
2017-12-16T01:02:11.213Z,997.69
2017-12-16T01:03:11.223Z,997.71
2017-12-16T01:04:11.235Z,997.73
2017-12-16T01:05:11.247Z,997.73
2017-12-16T01:06:11.258Z,997.71
2017-12-16T01:07:11.275Z,997.73
2017-12-16T01:08:11.284Z,997.73
2017-12-16T01:09:11.294Z,997.74
2017-12-16T01:10:11.303Z,997.77
2017-12-16T01:11:11.316Z,997.77
2017-12-16T01:12:11.327Z,997.80
2017-12-16T01:13:11.391Z,997.80
2017-12-16T01:14:11.350Z,997.83
2017-12-16T01:15:11.363Z,997.87
2017-12-16T01:16:11.373Z,997.85
2017-12-16T01:17:11.385Z,997.85
2017-12-16T01:18:11.404Z,997.83
2017-12-16T01:19:11.415Z,997.88
2017-12-16T01:20:11.435Z,997.84
2017-12-16T01:21:11.434Z,997.84
2017-12-16T01:22:11.447Z,997.87
2017-12-16T01:23:11.457Z,997.87
2017-12-16T01:24:11.466Z,997.88
2017-12-16T01:25:11.482Z,997.89
2017-12-16T01:26:11.490Z,997.91
2017-12-16T01:27:11.501Z,997.85
2017-12-16T01:28:11.514Z,997.90
2017-12-16T01:29:11.525Z,997.94
2017-12-16T01:30:11.537Z,997.91
2017-12-16T01:31:11.552Z,997.98
2017-12-16T01:32:11.561Z,997.99
2017-12-16T01:33:11.574Z,997.96
2017-12-16T01:34:11.586Z,998.02
2017-12-16T01:35:11.601Z,998.04
2017-12-16T01:36:11.609Z,998.03
2017-12-16T01:37:11.622Z,998.06
2017-12-16T01:38:11.634Z,998.08
2017-12-16T01:39:11.643Z,998.09
2017-12-16T01:40:11.661Z,998.10
2017-12-16T01:41:11.670Z,998.10
2017-12-16T01:42:11.682Z,998.09
2017-12-16T01:43:11.691Z,998.12
2017-12-16T01:44:11.705Z,998.10
2017-12-16T01:45:11.718Z,998.10
2017-12-16T01:46:11.733Z,998.09
2017-12-16T01:47:11.741Z,998.12
2017-12-16T01:48:11.757Z,998.11
2017-12-16T01:49:11.765Z,998.15
2017-12-16T01:50:11.779Z,998.17
2017-12-16T01:51:11.790Z,998.17
2017-12-16T01:52:11.799Z,998.19
2017-12-16T01:53:11.811Z,998.21
2017-12-16T01:54:11.828Z,998.20
2017-12-16T01:55:11.834Z,998.21
2017-12-16T01:56:11.847Z,998.22
2017-12-16T01:57:11.858Z,998.27
2017-12-16T01:58:11.870Z,998.28
2017-12-16T01:59:11.883Z,998.29
2017-12-16T02:00:11.895Z,998.31
2017-12-16T02:01:11.907Z,998.31
2017-12-16T02:02:11.915Z,998.30
2017-12-16T02:03:11.930Z,998.33
2017-12-16T02:04:11.938Z,998.32
2017-12-16T02:05:11.951Z,998.34
2017-12-16T02:06:11.962Z,998.36
2017-12-16T02:07:11.973Z,998.36
2017-12-16T02:08:11.986Z,998.40
2017-12-16T02:09:11.998Z,998.37
2017-12-16T02:10:12.012Z,998.42
2017-12-16T02:11:12.019Z,998.39
2017-12-16T02:12:12.034Z,998.41
2017-12-16T02:13:12.046Z,998.39
2017-12-16T02:14:12.056Z,998.39
2017-12-16T02:15:12.071Z,998.36
2017-12-16T02:16:12.078Z,998.37
2017-12-16T02:17:12.094Z,998.34
2017-12-16T02:18:12.101Z,998.34
2017-12-16T02:19:12.113Z,998.35
2017-12-16T02:20:12.126Z,998.36
2017-12-16T02:21:12.136Z,998.42
2017-12-16T02:22:12.155Z,998.39
2017-12-16T02:23:12.163Z,998.43
2017-12-16T02:24:12.173Z,998.47
2017-12-16T02:25:12.182Z,998.43
2017-12-16T02:26:12.195Z,998.46
2017-12-16T02:27:12.206Z,998.46
2017-12-16T02:28:12.219Z,998.46
2017-12-16T02:29:12.234Z,998.50
2017-12-16T02:30:12.247Z,998.51
2017-12-16T02:31:12.255Z,998.55
2017-12-16T02:32:12.267Z,998.57
2017-12-16T02:33:12.273Z,998.58
2017-12-16T02:34:12.293Z,998.58
2017-12-16T02:35:12.308Z,998.55
2017-12-16T02:36:12.309Z,998.54
2017-12-16T02:37:12.321Z,998.48
2017-12-16T02:38:12.346Z,998.43
2017-12-16T02:39:12.346Z,998.42
2017-12-16T02:40:12.358Z,998.39
2017-12-16T02:41:12.367Z,998.41
2017-12-16T02:42:12.379Z,998.44
2017-12-16T02:43:12.391Z,998.48
2017-12-16T02:44:12.404Z,998.51
2017-12-16T02:45:12.416Z,998.54
2017-12-16T02:46:12.427Z,998.55
2017-12-16T02:47:12.520Z,998.56
2017-12-16T02:48:12.449Z,998.59
2017-12-16T02:49:12.461Z,998.60
2017-12-16T02:50:12.474Z,998.63
2017-12-16T02:51:12.481Z,998.64
2017-12-16T02:52:12.495Z,998.68
2017-12-16T02:53:12.508Z,998.67
2017-12-16T02:54:12.519Z,998.71
2017-12-16T02:55:12.529Z,998.73
2017-12-16T02:56:12.542Z,998.77
2017-12-16T02:57:12.554Z,998.72
2017-12-16T02:58:12.564Z,998.74
2017-12-16T02:59:12.577Z,998.77
2017-12-16T03:00:12.588Z,998.81
2017-12-16T03:01:12.600Z,998.78
2017-12-16T03:02:12.611Z,998.81
2017-12-16T03:03:12.621Z,998.80
2017-12-16T03:04:12.637Z,998.82
2017-12-16T03:05:12.649Z,998.85
2017-12-16T03:06:12.659Z,998.80
2017-12-16T03:07:12.670Z,998.86
2017-12-16T03:08:12.685Z,998.91
2017-12-16T03:09:12.694Z,998.93
2017-12-16T03:10:12.757Z,998.93
2017-12-16T03:11:12.714Z,998.93
2017-12-16T03:12:12.727Z,998.94
2017-12-16T03:13:12.742Z,998.95
2017-12-16T03:14:12.751Z,998.96
2017-12-16T03:15:12.762Z,998.98
2017-12-16T03:16:12.782Z,999.01
2017-12-16T03:17:12.786Z,999.00
2017-12-16T03:18:12.798Z,999.01
2017-12-16T03:19:12.809Z,999.06
2017-12-16T03:20:12.825Z,999.09
2017-12-16T03:21:12.830Z,999.05
2017-12-16T03:22:12.844Z,999.11
2017-12-16T03:23:12.857Z,999.11
2017-12-16T03:24:12.870Z,999.09
2017-12-16T03:25:12.879Z,999.09
2017-12-16T03:26:12.890Z,999.16
2017-12-16T03:27:12.902Z,999.08
2017-12-16T03:28:12.911Z,999.10
2017-12-16T03:29:12.928Z,999.13
2017-12-16T03:30:13.010Z,999.15
2017-12-16T03:31:12.947Z,999.18
2017-12-16T03:32:12.962Z,999.14
2017-12-16T03:33:12.970Z,999.14
2017-12-16T03:34:12.982Z,999.21
2017-12-16T03:35:12.991Z,999.26
2017-12-16T03:36:13.036Z,999.26
2017-12-16T03:37:13.013Z,999.26
2017-12-16T03:38:13.027Z,999.26
2017-12-16T03:39:13.035Z,999.27
2017-12-16T03:40:13.050Z,999.29
2017-12-16T03:41:13.060Z,999.32
2017-12-16T03:42:13.068Z,999.32
2017-12-16T03:43:13.080Z,999.27
2017-12-16T03:44:13.093Z,999.32
2017-12-16T03:45:13.104Z,999.29
2017-12-16T03:46:13.115Z,999.26
2017-12-16T03:47:13.126Z,999.31
2017-12-16T03:48:13.137Z,999.30
2017-12-16T03:49:13.148Z,999.30
2017-12-16T03:50:13.158Z,999.32
2017-12-16T03:51:13.170Z,999.31
2017-12-16T03:52:13.181Z,999.38
2017-12-16T03:53:13.194Z,999.40
2017-12-16T03:54:13.204Z,999.39
2017-12-16T03:55:13.217Z,999.45
2017-12-16T03:56:13.227Z,999.43
2017-12-16T03:57:13.237Z,999.45
2017-12-16T03:58:13.249Z,999.49
2017-12-16T03:59:13.257Z,999.46
2017-12-16T04:00:13.271Z,999.45
2017-12-16T04:01:13.284Z,999.44
2017-12-16T04:02:13.297Z,999.44
2017-12-16T04:03:13.306Z,999.45
2017-12-16T04:04:13.315Z,999.48
2017-12-16T04:05:13.322Z,999.46
2017-12-16T04:06:13.333Z,999.44
2017-12-16T04:07:13.341Z,999.49
2017-12-16T04:08:13.352Z,999.50
2017-12-16T04:09:13.366Z,999.47
2017-12-16T04:10:13.374Z,999.46
2017-12-16T04:11:13.384Z,999.45
2017-12-16T04:12:13.396Z,999.45
2017-12-16T04:13:13.409Z,999.48
2017-12-16T04:14:13.421Z,999.48
2017-12-16T04:15:13.427Z,999.44
2017-12-16T04:16:13.440Z,999.48
2017-12-16T04:17:13.451Z,999.42
2017-12-16T04:18:13.461Z,999.45
2017-12-16T04:19:13.471Z,999.48
2017-12-16T04:20:13.483Z,999.46
2017-12-16T04:21:13.502Z,999.49
2017-12-16T04:22:13.509Z,999.46
2017-12-16T04:23:13.517Z,999.49
2017-12-16T04:24:13.540Z,999.46
2017-12-16T04:25:13.743Z,999.50
2017-12-16T04:26:13.552Z,999.54
2017-12-16T04:27:13.561Z,999.55
2017-12-16T04:28:13.573Z,999.56
2017-12-16T04:29:13.584Z,999.52
2017-12-16T04:30:13.594Z,999.53
2017-12-16T04:31:13.610Z,999.54
2017-12-16T04:32:13.620Z,999.55
2017-12-16T04:33:13.629Z,999.54
2017-12-16T04:34:13.641Z,999.58
2017-12-16T04:35:13.654Z,999.55
2017-12-16T04:36:13.666Z,999.57
2017-12-16T04:37:13.674Z,999.51
2017-12-16T04:38:13.684Z,999.55
2017-12-16T04:39:13.696Z,999.55
2017-12-16T04:40:13.710Z,999.54
2017-12-16T04:41:13.719Z,999.56
2017-12-16T04:42:13.731Z,999.54
2017-12-16T04:43:13.742Z,999.53
2017-12-16T04:44:13.762Z,999.56
2017-12-16T04:45:13.762Z,999.56
2017-12-16T04:46:13.775Z,999.57
2017-12-16T04:47:13.792Z,999.56
2017-12-16T04:48:13.797Z,999.59
2017-12-16T04:49:13.808Z,999.63
2017-12-16T04:50:13.820Z,999.66
2017-12-16T04:51:13.831Z,999.67
2017-12-16T04:52:13.841Z,999.71
2017-12-16T04:53:13.856Z,999.69
2017-12-16T04:54:13.865Z,999.70
2017-12-16T04:55:13.879Z,999.70
2017-12-16T04:56:13.887Z,999.74
2017-12-16T04:57:13.898Z,999.70
2017-12-16T04:58:13.907Z,999.69
2017-12-16T04:59:13.920Z,999.68
2017-12-16T05:00:13.955Z,999.67
2017-12-16T05:01:13.941Z,999.66
2017-12-16T05:02:13.953Z,999.70
2017-12-16T05:03:13.963Z,999.71
2017-12-16T05:04:13.975Z,999.75
2017-12-16T05:05:13.987Z,999.73
2017-12-16T05:06:13.995Z,999.74
2017-12-16T05:07:14.009Z,999.74
2017-12-16T05:08:14.019Z,999.73
2017-12-16T05:09:14.030Z,999.76
2017-12-16T05:10:14.042Z,999.75
2017-12-16T05:11:14.053Z,999.76
2017-12-16T05:12:14.064Z,999.75
2017-12-16T05:13:14.079Z,999.78
2017-12-16T05:14:14.086Z,999.78
2017-12-16T05:15:14.097Z,999.79
2017-12-16T05:16:14.110Z,999.76
2017-12-16T05:17:14.119Z,999.77
2017-12-16T05:18:14.134Z,999.77
2017-12-16T05:19:14.143Z,999.75
2017-12-16T05:20:14.153Z,999.78
2017-12-16T05:21:14.164Z,999.76
2017-12-16T05:22:14.177Z,999.76
2017-12-16T05:23:14.186Z,999.81
2017-12-16T05:24:14.198Z,999.87
2017-12-16T05:25:14.210Z,999.89
2017-12-16T05:26:14.223Z,999.94
2017-12-16T05:27:14.230Z,999.94
2017-12-16T05:28:14.243Z,999.97
2017-12-16T05:29:14.254Z,1000.01
2017-12-16T05:30:14.267Z,1000.01
2017-12-16T05:31:14.275Z,1000.04
2017-12-16T05:32:14.288Z,1000.02
2017-12-16T05:33:14.306Z,1000.07
2017-12-16T05:34:14.309Z,999.98
2017-12-16T05:35:14.319Z,1000.05
2017-12-16T05:36:14.331Z,1000.10
2017-12-16T05:37:14.342Z,999.99
2017-12-16T05:38:14.354Z,1000.01
2017-12-16T05:39:14.365Z,1000.02
2017-12-16T05:40:14.375Z,1000.01
2017-12-16T05:41:14.387Z,1000.01
2017-12-16T05:42:14.398Z,999.97
2017-12-16T05:43:14.412Z,1000.02
2017-12-16T05:44:14.420Z,1000.00
2017-12-16T05:45:14.430Z,1000.03
2017-12-16T05:46:14.442Z,1000.09
2017-12-16T05:47:14.455Z,1000.09
2017-12-16T05:48:14.467Z,1000.12
2017-12-16T05:49:14.479Z,1000.09
2017-12-16T05:50:14.485Z,1000.13
2017-12-16T05:51:14.496Z,1000.11
2017-12-16T05:52:14.508Z,1000.12
2017-12-16T05:53:14.520Z,1000.11
2017-12-16T05:54:14.529Z,1000.13
2017-12-16T05:55:14.539Z,1000.20
2017-12-16T05:56:14.551Z,1000.21
2017-12-16T05:57:14.563Z,1000.24
2017-12-16T05:58:14.577Z,1000.28
2017-12-16T05:59:14.585Z,1000.26
2017-12-16T06:00:14.598Z,1000.25
2017-12-16T06:01:14.608Z,1000.20
2017-12-16T06:02:14.769Z,1000.27
2017-12-16T06:03:14.631Z,1000.23
2017-12-16T06:04:14.640Z,1000.26
2017-12-16T06:05:14.650Z,1000.24
2017-12-16T06:06:14.666Z,1000.24
2017-12-16T06:07:14.673Z,1000.25
2017-12-16T06:08:14.693Z,1000.26
2017-12-16T06:09:14.695Z,1000.29
2017-12-16T06:10:14.706Z,1000.33
2017-12-16T06:11:14.717Z,1000.35
2017-12-16T06:12:14.878Z,1000.33
2017-12-16T06:13:14.745Z,1000.32
2017-12-16T06:14:14.750Z,1000.30
2017-12-16T06:15:14.760Z,1000.30
2017-12-16T06:16:14.773Z,1000.31
2017-12-16T06:17:14.783Z,1000.34
2017-12-16T06:18:14.796Z,1000.33
2017-12-16T06:19:14.809Z,1000.33
2017-12-16T06:20:14.971Z,1000.36
2017-12-16T06:21:14.829Z,1000.36
2017-12-16T06:22:14.840Z,1000.42
2017-12-16T06:23:14.849Z,1000.43
2017-12-16T06:24:14.863Z,1000.42
2017-12-16T06:25:14.929Z,1000.43
2017-12-16T06:26:14.884Z,1000.45
2017-12-16T06:27:14.900Z,1000.46
2017-12-16T06:28:14.906Z,1000.44
2017-12-16T06:29:15.088Z,1000.43
2017-12-16T06:30:14.928Z,1000.48
2017-12-16T06:31:15.088Z,1000.50
2017-12-16T06:32:14.949Z,1000.52
2017-12-16T06:33:14.960Z,1000.49
2017-12-16T06:34:14.973Z,1000.50
2017-12-16T06:35:14.983Z,1000.48
2017-12-16T06:36:14.994Z,1000.51
2017-12-16T06:37:15.004Z,1000.48
2017-12-16T06:38:15.016Z,1000.54
2017-12-16T06:39:15.027Z,1000.50
2017-12-16T06:40:15.038Z,1000.54
2017-12-16T06:41:15.150Z,1000.58
2017-12-16T06:42:15.062Z,1000.58
2017-12-16T06:43:15.072Z,1000.57
2017-12-16T06:44:15.084Z,1000.58
2017-12-16T06:45:15.095Z,1000.59
2017-12-16T06:46:15.106Z,1000.62
2017-12-16T06:47:15.121Z,1000.63
2017-12-16T06:48:15.126Z,1000.65
2017-12-16T06:49:15.140Z,1000.66
2017-12-16T06:50:15.149Z,1000.66
2017-12-16T06:51:15.160Z,1000.71
2017-12-16T06:52:15.178Z,1000.73
2017-12-16T06:53:15.183Z,1000.70
2017-12-16T06:54:15.194Z,1000.75
2017-12-16T06:55:15.204Z,1000.82
2017-12-16T06:56:15.217Z,1000.85
2017-12-16T06:57:15.227Z,1000.81
2017-12-16T06:58:15.242Z,1000.84
2017-12-16T06:59:15.251Z,1000.83
2017-12-16T07:00:15.260Z,1000.85
2017-12-16T07:01:15.270Z,1000.84
2017-12-16T07:02:15.287Z,1000.85
2017-12-16T07:03:15.294Z,1000.81
2017-12-16T07:04:15.313Z,1000.88
2017-12-16T07:05:15.317Z,1000.83
2017-12-16T07:06:15.329Z,1000.84
2017-12-16T07:07:15.339Z,1000.88
2017-12-16T07:08:15.350Z,1000.91
2017-12-16T07:09:15.360Z,1000.91
2017-12-16T07:10:15.372Z,1000.93
2017-12-16T07:11:15.382Z,1000.85
2017-12-16T07:12:15.393Z,1000.87
2017-12-16T07:13:15.405Z,1000.90
2017-12-16T07:14:15.417Z,1000.94
2017-12-16T07:15:15.427Z,1000.94
2017-12-16T07:16:15.440Z,1000.98
2017-12-16T07:17:15.448Z,1001.00
2017-12-16T07:18:15.458Z,1001.05
2017-12-16T07:19:15.470Z,1001.08
2017-12-16T07:20:15.488Z,1001.08
2017-12-16T07:21:15.493Z,1001.09
2017-12-16T07:22:15.508Z,1001.14
2017-12-16T07:23:15.528Z,1001.15
2017-12-16T07:24:15.534Z,1001.14
2017-12-16T07:25:15.538Z,1001.19
2017-12-16T07:26:15.559Z,1001.27
2017-12-16T07:27:15.560Z,1001.22
2017-12-16T07:28:15.572Z,1001.22
2017-12-16T07:29:15.582Z,1001.23
2017-12-16T07:30:15.599Z,1001.26
2017-12-16T07:31:15.605Z,1001.26
2017-12-16T07:32:15.625Z,1001.25
2017-12-16T07:33:15.626Z,1001.31
2017-12-16T07:34:15.645Z,1001.31
2017-12-16T07:35:15.655Z,1001.32
2017-12-16T07:36:15.660Z,1001.38
2017-12-16T07:37:15.682Z,1001.37
2017-12-16T07:38:15.685Z,1001.39
2017-12-16T07:39:15.693Z,1001.45
2017-12-16T07:40:15.705Z,1001.43
2017-12-16T07:41:15.719Z,1001.45
2017-12-16T07:42:15.729Z,1001.49
2017-12-16T07:43:15.737Z,1001.49
2017-12-16T07:44:15.752Z,1001.49
2017-12-16T07:45:15.762Z,1001.48
2017-12-16T07:46:15.773Z,1001.47
2017-12-16T07:47:15.785Z,1001.53
2017-12-16T07:48:15.797Z,1001.50
2017-12-16T07:49:15.809Z,1001.54
2017-12-16T07:50:15.817Z,1001.55
2017-12-16T07:51:15.826Z,1001.58
2017-12-16T07:52:15.840Z,1001.58
2017-12-16T07:53:15.848Z,1001.60
2017-12-16T07:54:15.873Z,1001.62
2017-12-16T07:55:15.869Z,1001.63
2017-12-16T07:56:15.881Z,1001.65
2017-12-16T07:57:15.891Z,1001.65
2017-12-16T07:58:15.914Z,1001.67
2017-12-16T07:59:15.914Z,1001.64
2017-12-16T08:00:15.924Z,1001.71
2017-12-16T08:01:15.937Z,1001.65
2017-12-16T08:02:15.946Z,1001.67
2017-12-16T08:03:15.968Z,1001.75
2017-12-16T08:04:15.968Z,1001.80
2017-12-16T08:05:15.979Z,1001.80
2017-12-16T08:06:15.992Z,1001.82
2017-12-16T08:07:16.002Z,1001.82
2017-12-16T08:08:16.031Z,1001.86
2017-12-16T08:09:16.029Z,1001.87
2017-12-16T08:10:16.036Z,1001.92
2017-12-16T08:11:16.047Z,1001.93
2017-12-16T08:12:16.058Z,1001.96
2017-12-16T08:13:16.069Z,1001.98
2017-12-16T08:14:16.080Z,1001.96
2017-12-16T08:15:16.097Z,1001.94
2017-12-16T08:16:16.102Z,1002.01
2017-12-16T08:17:16.114Z,1002.01
2017-12-16T08:18:16.132Z,1002.01
2017-12-16T08:19:16.135Z,1002.04
2017-12-16T08:20:16.204Z,1002.04
2017-12-16T08:21:16.159Z,1002.07
2017-12-16T08:22:16.170Z,1002.07
2017-12-16T08:23:16.187Z,1002.04
2017-12-16T08:24:16.193Z,1002.07
2017-12-16T08:25:16.207Z,1002.10
2017-12-16T08:26:16.222Z,1002.15
2017-12-16T08:27:16.224Z,1002.15
2017-12-16T08:28:16.242Z,1002.15
2017-12-16T08:29:16.246Z,1002.13
2017-12-16T08:30:16.259Z,1002.13
2017-12-16T08:31:16.270Z,1002.17
2017-12-16T08:32:16.283Z,1002.12
2017-12-16T08:33:16.293Z,1002.10
2017-12-16T08:34:16.310Z,1002.15
2017-12-16T08:35:16.313Z,1002.13
2017-12-16T08:36:16.327Z,1002.14
2017-12-16T08:37:16.350Z,1002.17
2017-12-16T08:38:16.355Z,1002.17
2017-12-16T08:39:16.359Z,1002.22
2017-12-16T08:40:16.397Z,1002.23
2017-12-16T08:41:16.385Z,1002.22
2017-12-16T08:42:16.399Z,1002.26
2017-12-16T08:43:16.406Z,1002.25
2017-12-16T08:44:16.423Z,1002.29
2017-12-16T08:45:16.429Z,1002.25
2017-12-16T08:46:16.439Z,1002.28
2017-12-16T08:47:16.450Z,1002.28
2017-12-16T08:48:16.467Z,1002.29
2017-12-16T08:49:16.474Z,1002.36
2017-12-16T08:50:16.486Z,1002.38
2017-12-16T08:51:16.501Z,1002.39
2017-12-16T08:52:16.517Z,1002.40
2017-12-16T08:53:16.521Z,1002.43
2017-12-16T08:54:16.537Z,1002.43
2017-12-16T08:55:16.544Z,1002.39
2017-12-16T08:56:16.558Z,1002.40
2017-12-16T08:57:16.565Z,1002.45
2017-12-16T08:58:16.582Z,1002.45
2017-12-16T08:59:16.590Z,1002.48
2017-12-16T09:00:16.607Z,1002.52
2017-12-16T09:01:16.608Z,1002.46
2017-12-16T09:02:16.628Z,1002.47
2017-12-16T09:03:16.631Z,1002.48
2017-12-16T09:04:16.648Z,1002.47
2017-12-16T09:05:16.663Z,1002.56
2017-12-16T09:06:16.676Z,1002.50
2017-12-16T09:07:16.680Z,1002.65
2017-12-16T09:08:16.695Z,1002.58
2017-12-16T09:09:16.705Z,1002.62
2017-12-16T09:10:16.717Z,1002.62
2017-12-16T09:11:16.721Z,1002.63
2017-12-16T09:12:16.740Z,1002.67
2017-12-16T09:13:16.746Z,1002.67
2017-12-16T09:14:16.762Z,1002.70
2017-12-16T09:15:16.768Z,1002.72
2017-12-16T09:16:16.786Z,1002.71
2017-12-16T09:17:16.790Z,1002.71
2017-12-16T09:18:16.807Z,1002.74
2017-12-16T09:19:16.813Z,1002.76
2017-12-16T09:20:16.828Z,1002.75
2017-12-16T09:21:16.841Z,1002.71
2017-12-16T09:22:16.849Z,1002.79
2017-12-16T09:23:16.858Z,1002.78
2017-12-16T09:24:16.874Z,1002.80
2017-12-16T09:25:16.879Z,1002.81
2017-12-16T09:26:16.897Z,1002.83
2017-12-16T09:27:16.904Z,1002.83
2017-12-16T09:28:16.920Z,1002.79
2017-12-16T09:29:16.927Z,1002.88
2017-12-16T09:30:16.941Z,1002.85
2017-12-16T09:31:16.947Z,1002.93
2017-12-16T09:32:16.967Z,1002.93
2017-12-16T09:33:16.974Z,1002.93
2017-12-16T09:34:16.989Z,1003.01
2017-12-16T09:35:17.055Z,1003.00
2017-12-16T09:36:17.004Z,1003.02
2017-12-16T09:37:17.037Z,1003.06
2017-12-16T09:38:17.033Z,1003.04
2017-12-16T09:39:17.041Z,1003.04
2017-12-16T09:40:17.053Z,1003.04
2017-12-16T09:41:17.062Z,1003.02
2017-12-16T09:42:17.088Z,1003.06
2017-12-16T09:43:17.084Z,1003.09
2017-12-16T09:44:17.100Z,1003.06
2017-12-16T09:45:17.109Z,1003.12
2017-12-16T09:46:17.120Z,1003.08
2017-12-16T09:47:17.130Z,1003.08
2017-12-16T09:48:17.145Z,1003.12
2017-12-16T09:49:17.156Z,1003.16
2017-12-16T09:50:17.173Z,1003.18
2017-12-16T09:51:17.179Z,1003.17
2017-12-16T09:52:17.189Z,1003.21
2017-12-16T09:53:17.201Z,1003.21
2017-12-16T09:54:17.216Z,1003.28
2017-12-16T09:55:17.220Z,1003.24
2017-12-16T09:56:17.234Z,1003.23
2017-12-16T09:57:17.245Z,1003.26
2017-12-16T09:58:17.257Z,1003.23
2017-12-16T09:59:17.274Z,1003.33
2017-12-16T10:00:17.287Z,1003.33
2017-12-16T10:01:17.295Z,1003.31
2017-12-16T10:02:17.309Z,1003.34
2017-12-16T10:03:17.317Z,1003.37
2017-12-16T10:04:17.341Z,1003.41
2017-12-16T10:05:17.342Z,1003.34
2017-12-16T10:06:17.350Z,1003.43
2017-12-16T10:07:17.361Z,1003.35
2017-12-16T10:08:17.375Z,1003.35
2017-12-16T10:09:17.387Z,1003.39
2017-12-16T10:10:17.398Z,1003.35
2017-12-16T10:11:17.412Z,1003.38
2017-12-16T10:12:17.422Z,1003.37
2017-12-16T10:13:17.440Z,1003.32
2017-12-16T10:14:17.449Z,1003.32
2017-12-16T10:15:17.456Z,1003.32
2017-12-16T10:16:17.472Z,1003.31
2017-12-16T10:17:17.489Z,1003.37
2017-12-16T10:18:17.503Z,1003.38
2017-12-16T10:19:17.504Z,1003.39
2017-12-16T10:20:17.517Z,1003.38
2017-12-16T10:21:17.532Z,1003.40
2017-12-16T10:22:17.644Z,1003.38
2017-12-16T10:23:17.550Z,1003.39
2017-12-16T10:24:17.565Z,1003.44
2017-12-16T10:25:17.578Z,1003.41
2017-12-16T10:26:17.592Z,1003.46
2017-12-16T10:27:17.600Z,1003.50
2017-12-16T10:28:17.611Z,1003.48
2017-12-16T10:29:17.622Z,1003.51
2017-12-16T10:30:17.684Z,1003.46
2017-12-16T10:31:17.647Z,1003.50
2017-12-16T10:32:17.659Z,1003.57
2017-12-16T10:33:17.672Z,1003.52
2017-12-16T10:34:17.688Z,1003.56
2017-12-16T10:35:17.697Z,1003.54
2017-12-16T10:36:17.705Z,1003.57
2017-12-16T10:37:17.738Z,1003.56
2017-12-16T10:38:17.733Z,1003.61
2017-12-16T10:39:17.745Z,1003.60
2017-12-16T10:40:17.757Z,1003.62
2017-12-16T10:41:17.767Z,1003.60
2017-12-16T10:42:17.779Z,1003.57
2017-12-16T10:43:17.793Z,1003.52
2017-12-16T10:44:17.805Z,1003.53
2017-12-16T10:45:17.819Z,1003.59
2017-12-16T10:46:17.828Z,1003.55
2017-12-16T10:47:17.838Z,1003.57
2017-12-16T10:48:17.848Z,1003.55
2017-12-16T10:49:17.864Z,1003.62
2017-12-16T10:50:17.885Z,1003.60
2017-12-16T10:51:17.888Z,1003.60
2017-12-16T10:52:17.901Z,1003.58
2017-12-16T10:53:17.915Z,1003.60
2017-12-16T10:54:17.923Z,1003.60
2017-12-16T10:55:17.985Z,1003.65
2017-12-16T10:56:17.949Z,1003.63
2017-12-16T10:57:17.960Z,1003.67
2017-12-16T10:58:17.974Z,1003.63
2017-12-16T10:59:17.985Z,1003.70
2017-12-16T11:00:17.996Z,1003.66
2017-12-16T11:01:18.009Z,1003.68
2017-12-16T11:02:18.020Z,1003.73
2017-12-16T11:03:18.033Z,1003.72
2017-12-16T11:04:18.042Z,1003.77
2017-12-16T11:05:18.056Z,1003.72
2017-12-16T11:06:18.072Z,1003.77
2017-12-16T11:07:18.084Z,1003.82
2017-12-16T11:08:18.094Z,1003.79
2017-12-16T11:09:18.102Z,1003.75
2017-12-16T11:10:18.116Z,1003.82
2017-12-16T11:11:18.127Z,1003.75
2017-12-16T11:12:18.141Z,1003.83
2017-12-16T11:13:18.156Z,1003.79
2017-12-16T11:14:18.166Z,1003.79
2017-12-16T11:15:18.177Z,1003.79
2017-12-16T11:16:18.187Z,1003.84
2017-12-16T11:17:18.204Z,1003.82
2017-12-16T11:18:18.213Z,1003.85
2017-12-16T11:19:18.224Z,1003.81
2017-12-16T11:20:18.235Z,1003.84
2017-12-16T11:21:18.246Z,1003.84
2017-12-16T11:22:18.260Z,1003.83
2017-12-16T11:23:18.272Z,1003.84
2017-12-16T11:24:18.287Z,1003.81
2017-12-16T11:25:18.297Z,1003.90
2017-12-16T11:26:18.308Z,1003.86
2017-12-16T11:27:18.324Z,1003.88
2017-12-16T11:28:18.332Z,1003.90
2017-12-16T11:29:18.343Z,1003.91
2017-12-16T11:30:18.358Z,1003.89
2017-12-16T11:31:18.370Z,1003.86
2017-12-16T11:32:18.382Z,1003.90
2017-12-16T11:33:18.393Z,1003.88
2017-12-16T11:34:18.406Z,1003.91
2017-12-16T11:35:18.421Z,1003.94
2017-12-16T11:36:18.428Z,1003.91
2017-12-16T11:37:18.445Z,1003.98
2017-12-16T11:38:18.453Z,1003.90
2017-12-16T11:39:18.465Z,1003.89
2017-12-16T11:40:18.474Z,1003.86
2017-12-16T11:41:19.093Z,1003.86
2017-12-16T11:42:18.497Z,1003.86
2017-12-16T11:43:18.507Z,1003.91
2017-12-16T11:44:18.519Z,1003.85
2017-12-16T11:45:18.531Z,1003.87
2017-12-16T11:46:18.544Z,1003.91
2017-12-16T11:47:18.554Z,1003.89
2017-12-16T11:48:18.579Z,1003.84
2017-12-16T11:49:18.581Z,1003.91
2017-12-16T11:50:18.595Z,1003.91
2017-12-16T11:51:18.604Z,1003.92
2017-12-16T11:52:18.617Z,1003.92
2017-12-16T11:53:18.629Z,1003.91
2017-12-16T11:54:19.466Z,1003.95
2017-12-16T11:55:18.654Z,1003.94
2017-12-16T11:56:18.666Z,1004.00
2017-12-16T11:57:18.681Z,1004.00
2017-12-16T11:58:18.688Z,1004.04
2017-12-16T11:59:18.705Z,1004.12
2017-12-16T12:00:18.714Z,1004.05
2017-12-16T12:01:18.725Z,1004.06
2017-12-16T12:02:18.742Z,1004.05
2017-12-16T12:03:18.751Z,1004.10
2017-12-16T12:04:18.766Z,1004.10
2017-12-16T12:05:18.775Z,1004.07
2017-12-16T12:06:18.789Z,1003.99
2017-12-16T12:07:18.804Z,1003.97
2017-12-16T12:08:18.812Z,1004.00
2017-12-16T12:09:18.825Z,1004.03
2017-12-16T12:10:18.843Z,1004.10
2017-12-16T12:11:18.852Z,1004.12
2017-12-16T12:12:18.862Z,1004.05
2017-12-16T12:13:18.876Z,1004.10
2017-12-16T12:14:18.888Z,1004.13
2017-12-16T12:15:18.900Z,1004.08
2017-12-16T12:16:18.911Z,1004.10